sensor_id;sensor_type;location;lat;lon;timestamp;P1;durP1;ratioP1;P2;durP2;ratioP2
23099;SDS011;53791;50.696;4.396;2023-05-07T00:00:50;2.60;;;1.50;;
23099;SDS011;53791;50.696;4.396;2023-05-07T00:03:18;6.17;;;1.98;;
23099;SDS011;53791;50.696;4.396;2023-05-07T00:05:45;3.27;;;1.87;;
23099;SDS011;53791;50.696;4.396;2023-05-07T00:08:13;3.20;;;1.80;;
23099;SDS011;53791;50.696;4.396;2023-05-07T00:10:41;6.15;;;2.20;;
23099;SDS011;53791;50.696;4.396;2023-05-07T00:13:08;3.45;;;1.72;;
23099;SDS011;53791;50.696;4.396;2023-05-07T00:15:36;2.12;;;0.95;;
23099;SDS011;53791;50.696;4.396;2023-05-07T00:18:03;7.97;;;2.77;;
23099;SDS011;53791;50.696;4.396;2023-05-07T00:20:31;2.40;;;1.37;;
23099;SDS011;53791;50.696;4.396;2023-05-07T00:22:58;10.10;;;1.90;;
23099;SDS011;53791;50.696;4.396;2023-05-07T00:25:26;2.98;;;1.92;;
23099;SDS011;53791;50.696;4.396;2023-05-07T00:27:54;2.27;;;1.40;;
23099;SDS011;53791;50.696;4.396;2023-05-07T00:30:21;6.75;;;2.15;;
23099;SDS011;53791;50.696;4.396;2023-05-07T00:32:48;3.17;;;1.92;;
23099;SDS011;53791;50.696;4.396;2023-05-07T00:35:16;3.37;;;1.85;;
23099;SDS011;53791;50.696;4.396;2023-05-07T00:37:44;2.47;;;1.50;;
23099;SDS011;53791;50.696;4.396;2023-05-07T00:42:53;2.33;;;1.50;;
23099;SDS011;53791;50.696;4.396;2023-05-07T00:45:22;3.62;;;1.92;;
23099;SDS011;53791;50.696;4.396;2023-05-07T00:47:54;4.60;;;2.55;;
23099;SDS011;53791;50.696;4.396;2023-05-07T00:50:23;3.83;;;1.75;;
23099;SDS011;53791;50.696;4.396;2023-05-07T00:52:52;2.83;;;1.70;;
23099;SDS011;53791;50.696;4.396;2023-05-07T00:55:21;2.80;;;1.85;;
23099;SDS011;53791;50.696;4.396;2023-05-07T00:57:50;3.08;;;1.82;;
23099;SDS011;53791;50.696;4.396;2023-05-07T01:00:18;5.70;;;1.87;;
23099;SDS011;53791;50.696;4.396;2023-05-07T01:02:47;2.17;;;1.45;;
23099;SDS011;53791;50.696;4.396;2023-05-07T01:05:15;2.42;;;1.30;;
23099;SDS011;53791;50.696;4.396;2023-05-07T01:07:45;1.60;;;1.10;;
23099;SDS011;53791;50.696;4.396;2023-05-07T01:10:13;2.12;;;1.40;;
23099;SDS011;53791;50.696;4.396;2023-05-07T01:12:42;2.50;;;1.20;;
23099;SDS011;53791;50.696;4.396;2023-05-07T01:15:11;9.48;;;1.75;;
23099;SDS011;53791;50.696;4.396;2023-05-07T01:17:39;1.82;;;1.30;;
23099;SDS011;53791;50.696;4.396;2023-05-07T01:20:08;5.87;;;1.92;;
23099;SDS011;53791;50.696;4.396;2023-05-07T01:22:41;4.42;;;1.50;;
23099;SDS011;53791;50.696;4.396;2023-05-07T01:25:06;3.85;;;1.87;;
23099;SDS011;53791;50.696;4.396;2023-05-07T01:27:34;1.50;;;1.10;;
23099;SDS011;53791;50.696;4.396;2023-05-07T01:30:06;3.87;;;2.00;;
23099;SDS011;53791;50.696;4.396;2023-05-07T01:32:46;2.58;;;1.27;;
23099;SDS011;53791;50.696;4.396;2023-05-07T01:35:12;2.83;;;1.47;;
23099;SDS011;53791;50.696;4.396;2023-05-07T01:37:42;5.17;;;2.08;;
23099;SDS011;53791;50.696;4.396;2023-05-07T01:40:11;1.62;;;1.07;;
23099;SDS011;53791;50.696;4.396;2023-05-07T01:42:39;3.42;;;1.85;;
23099;SDS011;53791;50.696;4.396;2023-05-07T01:45:08;7.75;;;1.50;;
23099;SDS011;53791;50.696;4.396;2023-05-07T01:47:36;2.62;;;1.40;;
23099;SDS011;53791;50.696;4.396;2023-05-07T01:50:07;4.40;;;1.62;;
23099;SDS011;53791;50.696;4.396;2023-05-07T01:52:37;4.37;;;2.00;;
23099;SDS011;53791;50.696;4.396;2023-05-07T01:55:05;2.62;;;1.57;;
23099;SDS011;53791;50.696;4.396;2023-05-07T01:57:33;2.35;;;1.42;;
23099;SDS011;53791;50.696;4.396;2023-05-07T02:00:01;2.67;;;1.65;;
23099;SDS011;53791;50.696;4.396;2023-05-07T02:02:30;5.33;;;1.95;;
23099;SDS011;53791;50.696;4.396;2023-05-07T02:04:59;2.33;;;1.60;;
23099;SDS011;53791;50.696;4.396;2023-05-07T02:07:28;9.68;;;2.62;;
23099;SDS011;53791;50.696;4.396;2023-05-07T02:09:55;2.22;;;1.55;;
23099;SDS011;53791;50.696;4.396;2023-05-07T02:12:23;3.25;;;1.50;;
23099;SDS011;53791;50.696;4.396;2023-05-07T02:14:50;7.65;;;1.50;;
23099;SDS011;53791;50.696;4.396;2023-05-07T02:17:18;2.27;;;1.37;;
23099;SDS011;53791;50.696;4.396;2023-05-07T02:19:46;1.90;;;1.30;;
23099;SDS011;53791;50.696;4.396;2023-05-07T02:22:13;3.12;;;1.75;;
23099;SDS011;53791;50.696;4.396;2023-05-07T02:24:41;3.98;;;2.15;;
23099;SDS011;53791;50.696;4.396;2023-05-07T02:27:09;2.22;;;1.00;;
23099;SDS011;53791;50.696;4.396;2023-05-07T02:29:36;2.33;;;1.65;;
23099;SDS011;53791;50.696;4.396;2023-05-07T02:32:04;1.80;;;1.12;;
23099;SDS011;53791;50.696;4.396;2023-05-07T02:34:31;2.87;;;1.47;;
23099;SDS011;53791;50.696;4.396;2023-05-07T02:36:59;3.17;;;1.80;;
23099;SDS011;53791;50.696;4.396;2023-05-07T02:39:27;24.95;;;2.42;;
23099;SDS011;53791;50.696;4.396;2023-05-07T02:41:54;3.58;;;2.12;;
23099;SDS011;53791;50.696;4.396;2023-05-07T02:44:22;1.82;;;1.15;;
23099;SDS011;53791;50.696;4.396;2023-05-07T02:46:49;3.02;;;1.92;;
23099;SDS011;53791;50.696;4.396;2023-05-07T02:49:17;3.70;;;1.62;;
23099;SDS011;53791;50.696;4.396;2023-05-07T02:51:44;3.10;;;1.98;;
23099;SDS011;53791;50.696;4.396;2023-05-07T02:54:12;2.20;;;1.17;;
23099;SDS011;53791;50.696;4.396;2023-05-07T02:56:39;2.12;;;1.32;;
23099;SDS011;53791;50.696;4.396;2023-05-07T02:59:07;2.45;;;1.30;;
23099;SDS011;53791;50.696;4.396;2023-05-07T03:01:34;2.62;;;1.37;;
23099;SDS011;53791;50.696;4.396;2023-05-07T03:04:02;2.25;;;1.25;;
23099;SDS011;53791;50.696;4.396;2023-05-07T03:06:30;4.70;;;1.98;;
23099;SDS011;53791;50.696;4.396;2023-05-07T03:08:57;4.12;;;1.98;;
23099;SDS011;53791;50.696;4.396;2023-05-07T03:11:25;2.40;;;1.45;;
23099;SDS011;53791;50.696;4.396;2023-05-07T03:13:52;2.25;;;1.52;;
23099;SDS011;53791;50.696;4.396;2023-05-07T03:16:20;3.33;;;1.60;;
23099;SDS011;53791;50.696;4.396;2023-05-07T03:18:47;7.20;;;3.20;;
23099;SDS011;53791;50.696;4.396;2023-05-07T03:21:15;2.60;;;1.40;;
23099;SDS011;53791;50.696;4.396;2023-05-07T03:23:43;3.75;;;1.82;;
23099;SDS011;53791;50.696;4.396;2023-05-07T03:26:10;2.75;;;1.52;;
23099;SDS011;53791;50.696;4.396;2023-05-07T03:28:38;3.60;;;1.82;;
23099;SDS011;53791;50.696;4.396;2023-05-07T03:31:05;2.50;;;1.37;;
23099;SDS011;53791;50.696;4.396;2023-05-07T03:33:33;4.10;;;1.60;;
23099;SDS011;53791;50.696;4.396;2023-05-07T03:36:01;1.82;;;1.15;;
23099;SDS011;53791;50.696;4.396;2023-05-07T03:38:28;4.42;;;2.27;;
23099;SDS011;53791;50.696;4.396;2023-05-07T03:40:56;1.77;;;1.15;;
23099;SDS011;53791;50.696;4.396;2023-05-07T03:43:23;4.35;;;1.80;;
23099;SDS011;53791;50.696;4.396;2023-05-07T03:45:51;2.72;;;1.65;;
23099;SDS011;53791;50.696;4.396;2023-05-07T03:48:18;2.58;;;1.55;;
23099;SDS011;53791;50.696;4.396;2023-05-07T03:50:46;4.28;;;1.90;;
23099;SDS011;53791;50.696;4.396;2023-05-07T03:53:13;3.60;;;1.72;;
23099;SDS011;53791;50.696;4.396;2023-05-07T03:55:41;2.70;;;1.52;;
23099;SDS011;53791;50.696;4.396;2023-05-07T03:58:08;2.50;;;1.70;;
23099;SDS011;53791;50.696;4.396;2023-05-07T04:00:36;2.55;;;1.50;;
23099;SDS011;53791;50.696;4.396;2023-05-07T04:03:05;2.70;;;1.60;;
23099;SDS011;53791;50.696;4.396;2023-05-07T04:05:33;5.70;;;2.70;;
23099;SDS011;53791;50.696;4.396;2023-05-07T04:08:00;2.72;;;1.47;;
23099;SDS011;53791;50.696;4.396;2023-05-07T04:10:29;2.60;;;1.50;;
23099;SDS011;53791;50.696;4.396;2023-05-07T04:12:56;1.92;;;1.22;;
23099;SDS011;53791;50.696;4.396;2023-05-07T04:15:24;2.30;;;1.50;;
23099;SDS011;53791;50.696;4.396;2023-05-07T04:17:51;2.27;;;1.55;;
23099;SDS011;53791;50.696;4.396;2023-05-07T04:20:19;2.50;;;1.80;;
23099;SDS011;53791;50.696;4.396;2023-05-07T04:22:46;2.55;;;1.80;;
23099;SDS011;53791;50.696;4.396;2023-05-07T04:25:14;3.20;;;1.62;;
23099;SDS011;53791;50.696;4.396;2023-05-07T04:27:43;2.33;;;1.40;;
23099;SDS011;53791;50.696;4.396;2023-05-07T04:30:10;2.83;;;1.52;;
23099;SDS011;53791;50.696;4.396;2023-05-07T04:32:39;2.98;;;1.72;;
23099;SDS011;53791;50.696;4.396;2023-05-07T04:35:07;3.15;;;1.90;;
23099;SDS011;53791;50.696;4.396;2023-05-07T04:37:34;25.20;;;1.40;;
23099;SDS011;53791;50.696;4.396;2023-05-07T04:40:02;4.08;;;2.05;;
23099;SDS011;53791;50.696;4.396;2023-05-07T04:42:30;9.63;;;2.02;;
23099;SDS011;53791;50.696;4.396;2023-05-07T04:44:57;3.40;;;1.60;;
23099;SDS011;53791;50.696;4.396;2023-05-07T04:47:25;5.28;;;2.12;;
23099;SDS011;53791;50.696;4.396;2023-05-07T04:49:53;4.90;;;2.35;;
23099;SDS011;53791;50.696;4.396;2023-05-07T04:52:20;3.00;;;1.95;;
23099;SDS011;53791;50.696;4.396;2023-05-07T04:54:48;1.85;;;1.12;;
23099;SDS011;53791;50.696;4.396;2023-05-07T04:57:15;3.27;;;1.70;;
23099;SDS011;53791;50.696;4.396;2023-05-07T04:59:43;4.80;;;1.90;;
23099;SDS011;53791;50.696;4.396;2023-05-07T05:02:11;2.77;;;1.62;;
23099;SDS011;53791;50.696;4.396;2023-05-07T05:04:38;1.75;;;1.25;;
23099;SDS011;53791;50.696;4.396;2023-05-07T05:07:06;1.65;;;1.10;;
23099;SDS011;53791;50.696;4.396;2023-05-07T05:09:33;2.33;;;1.57;;
23099;SDS011;53791;50.696;4.396;2023-05-07T05:12:01;5.17;;;1.60;;
23099;SDS011;53791;50.696;4.396;2023-05-07T05:17:24;3.98;;;2.22;;
23099;SDS011;53791;50.696;4.396;2023-05-07T05:19:58;2.40;;;1.25;;
23099;SDS011;53791;50.696;4.396;2023-05-07T05:22:30;4.62;;;1.72;;
23099;SDS011;53791;50.696;4.396;2023-05-07T05:24:56;3.77;;;1.50;;
23099;SDS011;53791;50.696;4.396;2023-05-07T05:27:24;4.03;;;1.47;;
23099;SDS011;53791;50.696;4.396;2023-05-07T05:29:51;3.10;;;2.00;;
23099;SDS011;53791;50.696;4.396;2023-05-07T05:32:19;2.50;;;1.37;;
23099;SDS011;53791;50.696;4.396;2023-05-07T05:34:46;2.00;;;1.47;;
23099;SDS011;53791;50.696;4.396;2023-05-07T05:37:14;2.37;;;1.45;;
23099;SDS011;53791;50.696;4.396;2023-05-07T05:39:42;2.58;;;1.57;;
23099;SDS011;53791;50.696;4.396;2023-05-07T05:42:09;2.52;;;1.50;;
23099;SDS011;53791;50.696;4.396;2023-05-07T05:44:37;2.30;;;1.52;;
23099;SDS011;53791;50.696;4.396;2023-05-07T05:47:04;2.08;;;1.47;;
23099;SDS011;53791;50.696;4.396;2023-05-07T05:49:40;4.30;;;2.20;;
23099;SDS011;53791;50.696;4.396;2023-05-07T05:52:09;2.62;;;1.50;;
23099;SDS011;53791;50.696;4.396;2023-05-07T05:54:39;3.67;;;1.67;;
23099;SDS011;53791;50.696;4.396;2023-05-07T05:57:07;2.20;;;1.32;;
23099;SDS011;53791;50.696;4.396;2023-05-07T05:59:35;2.47;;;1.67;;
23099;SDS011;53791;50.696;4.396;2023-05-07T06:02:02;4.42;;;1.92;;
23099;SDS011;53791;50.696;4.396;2023-05-07T06:04:30;2.50;;;1.60;;
23099;SDS011;53791;50.696;4.396;2023-05-07T06:06:57;2.45;;;1.40;;
23099;SDS011;53791;50.696;4.396;2023-05-07T06:09:25;2.62;;;1.55;;
23099;SDS011;53791;50.696;4.396;2023-05-07T06:11:52;2.67;;;1.60;;
23099;SDS011;53791;50.696;4.396;2023-05-07T06:14:20;3.47;;;1.85;;
23099;SDS011;53791;50.696;4.396;2023-05-07T06:16:47;4.45;;;1.25;;
23099;SDS011;53791;50.696;4.396;2023-05-07T06:19:15;2.55;;;1.62;;
23099;SDS011;53791;50.696;4.396;2023-05-07T06:21:44;2.00;;;1.12;;
23099;SDS011;53791;50.696;4.396;2023-05-07T06:24:12;2.20;;;1.45;;
23099;SDS011;53791;50.696;4.396;2023-05-07T06:26:39;3.00;;;1.95;;
23099;SDS011;53791;50.696;4.396;2023-05-07T06:29:07;3.42;;;1.80;;
23099;SDS011;53791;50.696;4.396;2023-05-07T06:31:34;2.05;;;1.35;;
23099;SDS011;53791;50.696;4.396;2023-05-07T06:34:02;4.67;;;1.70;;
23099;SDS011;53791;50.696;4.396;2023-05-07T06:36:31;3.30;;;1.95;;
23099;SDS011;53791;50.696;4.396;2023-05-07T06:38:58;1.80;;;1.10;;
23099;SDS011;53791;50.696;4.396;2023-05-07T06:41:26;3.27;;;1.98;;
23099;SDS011;53791;50.696;4.396;2023-05-07T06:43:53;3.50;;;1.72;;
23099;SDS011;53791;50.696;4.396;2023-05-07T06:46:21;8.93;;;1.82;;
23099;SDS011;53791;50.696;4.396;2023-05-07T06:48:56;4.72;;;1.60;;
23099;SDS011;53791;50.696;4.396;2023-05-07T06:51:18;2.17;;;1.30;;
23099;SDS011;53791;50.696;4.396;2023-05-07T06:53:46;4.35;;;1.95;;
23099;SDS011;53791;50.696;4.396;2023-05-07T06:56:13;2.45;;;1.77;;
23099;SDS011;53791;50.696;4.396;2023-05-07T06:58:41;1.87;;;1.35;;
23099;SDS011;53791;50.696;4.396;2023-05-07T07:01:08;3.30;;;1.75;;
23099;SDS011;53791;50.696;4.396;2023-05-07T07:10:18;3.05;;;1.77;;
23099;SDS011;53791;50.696;4.396;2023-05-07T07:19:06;2.77;;;1.70;;
23099;SDS011;53791;50.696;4.396;2023-05-07T07:24:45;2.87;;;1.72;;
23099;SDS011;53791;50.696;4.396;2023-05-07T07:29:49;2.47;;;1.40;;
23099;SDS011;53791;50.696;4.396;2023-05-07T07:32:32;2.25;;;1.87;;
23099;SDS011;53791;50.696;4.396;2023-05-07T07:35:06;3.33;;;1.60;;
23099;SDS011;53791;50.696;4.396;2023-05-07T07:37:34;2.47;;;1.52;;
23099;SDS011;53791;50.696;4.396;2023-05-07T07:40:02;1.60;;;1.00;;
23099;SDS011;53791;50.696;4.396;2023-05-07T07:42:30;1.55;;;0.90;;
23099;SDS011;53791;50.696;4.396;2023-05-07T07:44:57;2.70;;;1.47;;
23099;SDS011;53791;50.696;4.396;2023-05-07T07:47:25;2.00;;;1.20;;
23099;SDS011;53791;50.696;4.396;2023-05-07T07:49:52;1.90;;;1.35;;
23099;SDS011;53791;50.696;4.396;2023-05-07T07:52:20;1.80;;;1.20;;
23099;SDS011;53791;50.696;4.396;2023-05-07T07:54:48;2.98;;;1.70;;
23099;SDS011;53791;50.696;4.396;2023-05-07T07:57:15;2.20;;;1.57;;
23099;SDS011;53791;50.696;4.396;2023-05-07T07:59:43;2.37;;;1.50;;
23099;SDS011;53791;50.696;4.396;2023-05-07T08:02:11;3.87;;;1.77;;
23099;SDS011;53791;50.696;4.396;2023-05-07T08:04:38;2.12;;;1.77;;
23099;SDS011;53791;50.696;4.396;2023-05-07T08:07:06;3.80;;;2.15;;
23099;SDS011;53791;50.696;4.396;2023-05-07T08:09:33;2.10;;;1.70;;
23099;SDS011;53791;50.696;4.396;2023-05-07T08:12:01;2.20;;;1.80;;
23099;SDS011;53791;50.696;4.396;2023-05-07T08:14:29;2.77;;;2.15;;
23099;SDS011;53791;50.696;4.396;2023-05-07T08:16:56;1.92;;;1.65;;
23099;SDS011;53791;50.696;4.396;2023-05-07T08:19:24;3.75;;;2.52;;
23099;SDS011;53791;50.696;4.396;2023-05-07T08:21:53;3.00;;;2.25;;
23099;SDS011;53791;50.696;4.396;2023-05-07T08:24:22;4.22;;;2.60;;
23099;SDS011;53791;50.696;4.396;2023-05-07T08:26:49;6.28;;;1.87;;
23099;SDS011;53791;50.696;4.396;2023-05-07T08:29:17;2.42;;;2.00;;
23099;SDS011;53791;50.696;4.396;2023-05-07T08:31:45;2.45;;;1.90;;
23099;SDS011;53791;50.696;4.396;2023-05-07T08:34:13;4.80;;;2.60;;
23099;SDS011;53791;50.696;4.396;2023-05-07T08:36:40;3.40;;;2.58;;
23099;SDS011;53791;50.696;4.396;2023-05-07T08:39:08;3.37;;;2.55;;
23099;SDS011;53791;50.696;4.396;2023-05-07T08:41:35;2.90;;;2.60;;
23099;SDS011;53791;50.696;4.396;2023-05-07T08:44:03;2.50;;;2.17;;
23099;SDS011;53791;50.696;4.396;2023-05-07T08:46:33;2.90;;;2.60;;
23099;SDS011;53791;50.696;4.396;2023-05-07T08:49:01;2.50;;;2.30;;
23099;SDS011;53791;50.696;4.396;2023-05-07T08:51:29;3.75;;;2.80;;
23099;SDS011;53791;50.696;4.396;2023-05-07T08:53:58;5.40;;;2.70;;
23099;SDS011;53791;50.696;4.396;2023-05-07T08:56:27;2.20;;;2.00;;
23099;SDS011;53791;50.696;4.396;2023-05-07T08:58:55;3.17;;;2.87;;
23099;SDS011;53791;50.696;4.396;2023-05-07T09:01:24;7.28;;;3.52;;
23099;SDS011;53791;50.696;4.396;2023-05-07T09:03:52;2.87;;;2.55;;
23099;SDS011;53791;50.696;4.396;2023-05-07T09:06:20;2.95;;;2.50;;
23099;SDS011;53791;50.696;4.396;2023-05-07T09:08:52;2.67;;;2.37;;
23099;SDS011;53791;50.696;4.396;2023-05-07T09:11:21;3.08;;;2.77;;
23099;SDS011;53791;50.696;4.396;2023-05-07T09:13:52;2.30;;;2.10;;
23099;SDS011;53791;50.696;4.396;2023-05-07T09:16:20;12.23;;;2.83;;
23099;SDS011;53791;50.696;4.396;2023-05-07T09:18:50;2.75;;;2.50;;
23099;SDS011;53791;50.696;4.396;2023-05-07T09:21:19;5.90;;;3.00;;
23099;SDS011;53791;50.696;4.396;2023-05-07T09:23:50;3.00;;;2.70;;
23099;SDS011;53791;50.696;4.396;2023-05-07T09:26:20;2.50;;;2.30;;
23099;SDS011;53791;50.696;4.396;2023-05-07T09:28:50;3.75;;;2.85;;
23099;SDS011;53791;50.696;4.396;2023-05-07T09:31:20;2.55;;;2.33;;
23099;SDS011;53791;50.696;4.396;2023-05-07T09:33:49;2.77;;;2.58;;
23099;SDS011;53791;50.696;4.396;2023-05-07T09:36:16;3.05;;;2.58;;
23099;SDS011;53791;50.696;4.396;2023-05-07T09:38:45;20.32;;;2.62;;
23099;SDS011;53791;50.696;4.396;2023-05-07T09:41:12;3.20;;;2.55;;
23099;SDS011;53791;50.696;4.396;2023-05-07T09:43:42;2.47;;;2.27;;
23099;SDS011;53791;50.696;4.396;2023-05-07T09:46:13;2.37;;;2.17;;
23099;SDS011;53791;50.696;4.396;2023-05-07T09:48:43;20.27;;;3.75;;
23099;SDS011;53791;50.696;4.396;2023-05-07T09:51:14;2.45;;;2.25;;
23099;SDS011;53791;50.696;4.396;2023-05-07T09:53:41;2.83;;;2.55;;
23099;SDS011;53791;50.696;4.396;2023-05-07T09:56:13;2.55;;;2.35;;
23099;SDS011;53791;50.696;4.396;2023-05-07T09:58:42;3.87;;;2.80;;
23099;SDS011;53791;50.696;4.396;2023-05-07T10:01:11;3.27;;;2.65;;
23099;SDS011;53791;50.696;4.396;2023-05-07T10:03:40;7.97;;;2.95;;
23099;SDS011;53791;50.696;4.396;2023-05-07T10:06:09;2.83;;;2.52;;
23099;SDS011;53791;50.696;4.396;2023-05-07T10:08:37;2.90;;;2.50;;
23099;SDS011;53791;50.696;4.396;2023-05-07T10:11:13;2.30;;;2.10;;
23099;SDS011;53791;50.696;4.396;2023-05-07T10:13:41;2.90;;;2.65;;
23099;SDS011;53791;50.696;4.396;2023-05-07T10:16:10;3.20;;;2.90;;
23099;SDS011;53791;50.696;4.396;2023-05-07T10:18:37;3.05;;;2.75;;
23099;SDS011;53791;50.696;4.396;2023-05-07T10:21:07;3.10;;;2.80;;
23099;SDS011;53791;50.696;4.396;2023-05-07T10:23:36;3.12;;;2.85;;
23099;SDS011;53791;50.696;4.396;2023-05-07T10:26:09;3.00;;;2.80;;
23099;SDS011;53791;50.696;4.396;2023-05-07T10:28:41;3.05;;;2.75;;
23099;SDS011;53791;50.696;4.396;2023-05-07T10:37:13;3.15;;;2.85;;
23099;SDS011;53791;50.696;4.396;2023-05-07T10:45:35;3.67;;;3.02;;
23099;SDS011;53791;50.696;4.396;2023-05-07T10:48:14;2.70;;;2.50;;
23099;SDS011;53791;50.696;4.396;2023-05-07T10:50:44;3.10;;;2.80;;
23099;SDS011;53791;50.696;4.396;2023-05-07T10:53:21;3.12;;;2.83;;
23099;SDS011;53791;50.696;4.396;2023-05-07T10:55:48;3.45;;;3.15;;
23099;SDS011;53791;50.696;4.396;2023-05-07T10:58:25;3.10;;;2.80;;
23099;SDS011;53791;50.696;4.396;2023-05-07T11:15:13;3.17;;;2.87;;
23099;SDS011;53791;50.696;4.396;2023-05-07T11:18:05;3.40;;;2.90;;
23099;SDS011;53791;50.696;4.396;2023-05-07T11:20:44;6.15;;;3.40;;
23099;SDS011;53791;50.696;4.396;2023-05-07T11:26:03;6.47;;;3.40;;
23099;SDS011;53791;50.696;4.396;2023-05-07T11:28:37;3.52;;;3.10;;
23099;SDS011;53791;50.696;4.396;2023-05-07T11:31:05;3.33;;;3.02;;
23099;SDS011;53791;50.696;4.396;2023-05-07T11:33:33;3.00;;;2.70;;
23099;SDS011;53791;50.696;4.396;2023-05-07T11:36:02;3.02;;;2.72;;
23099;SDS011;53791;50.696;4.396;2023-05-07T11:38:40;3.33;;;3.02;;
23099;SDS011;53791;50.696;4.396;2023-05-07T11:41:04;3.85;;;3.30;;
23099;SDS011;53791;50.696;4.396;2023-05-07T11:43:32;3.50;;;3.20;;
23099;SDS011;53791;50.696;4.396;2023-05-07T11:46:10;4.00;;;3.42;;
23099;SDS011;53791;50.696;4.396;2023-05-07T11:48:40;4.17;;;3.37;;
23099;SDS011;53791;50.696;4.396;2023-05-07T11:51:07;3.12;;;2.83;;
23099;SDS011;53791;50.696;4.396;2023-05-07T11:53:40;3.30;;;3.00;;
23099;SDS011;53791;50.696;4.396;2023-05-07T11:56:09;3.40;;;3.10;;
23099;SDS011;53791;50.696;4.396;2023-05-07T11:58:39;4.12;;;3.40;;
23099;SDS011;53791;50.696;4.396;2023-05-07T12:01:08;3.60;;;3.30;;
23099;SDS011;53791;50.696;4.396;2023-05-07T12:03:37;6.45;;;4.42;;
23099;SDS011;53791;50.696;4.396;2023-05-07T12:06:08;6.25;;;3.95;;
23099;SDS011;53791;50.696;4.396;2023-05-07T12:08:37;4.92;;;4.05;;
23099;SDS011;53791;50.696;4.396;2023-05-07T12:11:09;5.62;;;4.25;;
23099;SDS011;53791;50.696;4.396;2023-05-07T12:13:39;4.47;;;4.00;;
23099;SDS011;53791;50.696;4.396;2023-05-07T12:16:07;3.90;;;3.50;;
23099;SDS011;53791;50.696;4.396;2023-05-07T12:18:35;4.90;;;4.40;;
23099;SDS011;53791;50.696;4.396;2023-05-07T12:21:04;6.25;;;4.72;;
23099;SDS011;53791;50.696;4.396;2023-05-07T12:23:33;5.03;;;4.50;;
23099;SDS011;53791;50.696;4.396;2023-05-07T12:26:02;5.42;;;3.95;;
23099;SDS011;53791;50.696;4.396;2023-05-07T12:28:35;4.25;;;3.85;;
23099;SDS011;53791;50.696;4.396;2023-05-07T12:31:04;6.20;;;4.00;;
23099;SDS011;53791;50.696;4.396;2023-05-07T12:33:32;4.20;;;3.80;;
23099;SDS011;53791;50.696;4.396;2023-05-07T12:36:02;4.80;;;3.70;;
23099;SDS011;53791;50.696;4.396;2023-05-07T12:38:34;5.53;;;4.50;;
23099;SDS011;53791;50.696;4.396;2023-05-07T12:41:01;3.95;;;3.55;;
23099;SDS011;53791;50.696;4.396;2023-05-07T12:43:29;3.65;;;3.35;;
23099;SDS011;53791;50.696;4.396;2023-05-07T12:45:57;4.62;;;3.90;;
23099;SDS011;53791;50.696;4.396;2023-05-07T12:48:30;3.95;;;3.15;;
23099;SDS011;53791;50.696;4.396;2023-05-07T12:50:58;4.12;;;3.58;;
23099;SDS011;53791;50.696;4.396;2023-05-07T12:53:28;4.15;;;3.50;;
23099;SDS011;53791;50.696;4.396;2023-05-07T12:55:57;6.33;;;3.60;;
23099;SDS011;53791;50.696;4.396;2023-05-07T12:58:29;7.05;;;3.67;;
23099;SDS011;53791;50.696;4.396;2023-05-07T13:00:59;3.40;;;2.95;;
23099;SDS011;53791;50.696;4.396;2023-05-07T13:03:29;3.92;;;3.40;;
23099;SDS011;53791;50.696;4.396;2023-05-07T13:06:04;5.40;;;3.52;;
23099;SDS011;53791;50.696;4.396;2023-05-07T13:08:36;8.18;;;3.72;;
23099;SDS011;53791;50.696;4.396;2023-05-07T13:11:07;4.47;;;3.50;;
23099;SDS011;53791;50.696;4.396;2023-05-07T13:13:36;7.78;;;4.50;;
23099;SDS011;53791;50.696;4.396;2023-05-07T13:16:05;6.65;;;4.58;;
23099;SDS011;53791;50.696;4.396;2023-05-07T13:18:34;3.37;;;3.08;;
23099;SDS011;53791;50.696;4.396;2023-05-07T13:21:02;3.45;;;3.15;;
23099;SDS011;53791;50.696;4.396;2023-05-07T13:23:31;3.70;;;3.27;;
23099;SDS011;53791;50.696;4.396;2023-05-07T13:26:10;3.72;;;3.17;;
23099;SDS011;53791;50.696;4.396;2023-05-07T13:28:38;3.58;;;3.27;;
23099;SDS011;53791;50.696;4.396;2023-05-07T13:31:06;7.28;;;3.65;;
23099;SDS011;53791;50.696;4.396;2023-05-07T13:38:39;5.30;;;4.00;;
23099;SDS011;53791;50.696;4.396;2023-05-07T13:41:08;5.08;;;4.58;;
23099;SDS011;53791;50.696;4.396;2023-05-07T13:43:40;4.35;;;3.95;;
23099;SDS011;53791;50.696;4.396;2023-05-07T13:46:07;4.33;;;3.77;;
23099;SDS011;53791;50.696;4.396;2023-05-07T14:00:51;5.35;;;4.35;;
23099;SDS011;53791;50.696;4.396;2023-05-07T14:03:18;3.85;;;3.47;;
23099;SDS011;53791;50.696;4.396;2023-05-07T14:05:46;4.03;;;3.35;;
23099;SDS011;53791;50.696;4.396;2023-05-07T14:08:14;3.90;;;3.50;;
23099;SDS011;53791;50.696;4.396;2023-05-07T14:10:43;7.33;;;3.52;;
23099;SDS011;53791;50.696;4.396;2023-05-07T14:13:11;3.77;;;3.37;;
23099;SDS011;53791;50.696;4.396;2023-05-07T14:15:44;5.15;;;3.83;;
23099;SDS011;53791;50.696;4.396;2023-05-07T14:18:30;3.17;;;2.87;;
23099;SDS011;53791;50.696;4.396;2023-05-07T14:26:09;4.83;;;3.25;;
23099;SDS011;53791;50.696;4.396;2023-05-07T14:28:36;3.92;;;3.35;;
23099;SDS011;53791;50.696;4.396;2023-05-07T14:31:05;12.13;;;3.72;;
23099;SDS011;53791;50.696;4.396;2023-05-07T14:33:41;3.52;;;2.58;;
23099;SDS011;53791;50.696;4.396;2023-05-07T14:36:14;5.25;;;3.30;;
23099;SDS011;53791;50.696;4.396;2023-05-07T14:38:40;3.58;;;2.60;;
23099;SDS011;53791;50.696;4.396;2023-05-07T14:41:09;3.00;;;2.45;;
23099;SDS011;53791;50.696;4.396;2023-05-07T14:43:40;5.83;;;3.65;;
23099;SDS011;53791;50.696;4.396;2023-05-07T14:46:08;3.20;;;2.77;;
23099;SDS011;53791;50.696;4.396;2023-05-07T14:51:35;3.62;;;2.62;;
23099;SDS011;53791;50.696;4.396;2023-05-07T14:54:00;5.30;;;2.85;;
23099;SDS011;53791;50.696;4.396;2023-05-07T14:56:34;4.22;;;3.10;;
23099;SDS011;53791;50.696;4.396;2023-05-07T14:59:07;4.33;;;3.05;;
23099;SDS011;53791;50.696;4.396;2023-05-07T15:01:51;3.52;;;2.50;;
23099;SDS011;53791;50.696;4.396;2023-05-07T15:04:19;3.62;;;2.62;;
23099;SDS011;53791;50.696;4.396;2023-05-07T15:06:52;2.95;;;2.47;;
23099;SDS011;53791;50.696;4.396;2023-05-07T15:09:24;3.42;;;2.65;;
23099;SDS011;53791;50.696;4.396;2023-05-07T15:11:53;4.95;;;2.87;;
23099;SDS011;53791;50.696;4.396;2023-05-07T15:14:20;5.70;;;3.08;;
23099;SDS011;53791;50.696;4.396;2023-05-07T15:16:48;2.98;;;2.50;;
23099;SDS011;53791;50.696;4.396;2023-05-07T15:19:16;2.98;;;2.47;;
23099;SDS011;53791;50.696;4.396;2023-05-07T15:21:43;4.67;;;2.52;;
23099;SDS011;53791;50.696;4.396;2023-05-07T15:24:11;3.12;;;2.30;;
23099;SDS011;53791;50.696;4.396;2023-05-07T15:26:38;6.40;;;2.22;;
23099;SDS011;53791;50.696;4.396;2023-05-07T15:29:06;2.77;;;2.05;;
23099;SDS011;53791;50.696;4.396;2023-05-07T15:31:35;3.55;;;2.05;;
23099;SDS011;53791;50.696;4.396;2023-05-07T15:34:09;2.65;;;2.02;;
23099;SDS011;53791;50.696;4.396;2023-05-07T15:36:33;4.17;;;2.47;;
23099;SDS011;53791;50.696;4.396;2023-05-07T15:39:01;2.47;;;1.85;;
23099;SDS011;53791;50.696;4.396;2023-05-07T15:41:30;2.50;;;1.90;;
23099;SDS011;53791;50.696;4.396;2023-05-07T15:43:58;2.40;;;1.90;;
23099;SDS011;53791;50.696;4.396;2023-05-07T15:46:29;2.80;;;1.90;;
23099;SDS011;53791;50.696;4.396;2023-05-07T15:48:56;2.75;;;1.90;;
23099;SDS011;53791;50.696;4.396;2023-05-07T15:51:24;2.75;;;2.30;;
23099;SDS011;53791;50.696;4.396;2023-05-07T15:53:51;2.22;;;1.75;;
23099;SDS011;53791;50.696;4.396;2023-05-07T15:56:20;2.47;;;1.67;;
23099;SDS011;53791;50.696;4.396;2023-05-07T15:58:50;4.22;;;1.90;;
23099;SDS011;53791;50.696;4.396;2023-05-07T16:01:18;3.47;;;2.42;;
23099;SDS011;53791;50.696;4.396;2023-05-07T16:03:46;2.92;;;2.05;;
23099;SDS011;53791;50.696;4.396;2023-05-07T16:06:13;2.33;;;1.65;;
23099;SDS011;53791;50.696;4.396;2023-05-07T16:08:41;1.90;;;1.52;;
23099;SDS011;53791;50.696;4.396;2023-05-07T16:11:09;2.17;;;1.75;;
23099;SDS011;53791;50.696;4.396;2023-05-07T16:13:37;1.90;;;1.40;;
23099;SDS011;53791;50.696;4.396;2023-05-07T16:16:04;2.70;;;1.77;;